Winterthur, Delaware
Current Conditions -  °F | °C
As of 11:51 AM on Monday 22 Dec 2014 (Local Time) from KILG Reporting Station
Overcast Overcast  
Wind Chill: 32°   Ceiling: 4300
Heat Index: 39°   Visibility: 8mi
Dew Point: 31°   Wind: 10mph
Humidity: 73%   Direction: 80°E
Pressure: 30.27"   Gusts: NA
Location:  39.8°N, 75.61°W
Report Text: KILG 221651Z 08009KT 8SM OVC043 04/M01 A3027 RMK AO2 PRESFR SLP250 T00391006
Loading
Personal Weather Stations






























Interactive Weather Map New forecast layout! Learn more

10-Day Weather Forecast

Advertisements
Track Severe Weather on mobile